Time;durP1;ratioP1;P1;durP2;ratioP2;P2;SDS_P1;SDS_P2;PMS_P1;PMS_P2;Temp;Humidity;BMP_temperature;BMP_pressure;BME280_temperature;BME280_humidity;BME280_pressure;Samples;Min_cycle;Max_cycle;Signal;HPM_P1;HPM_P2
2023/10/21 00:02:04;;;;;;;;;;;23.60;49.80;;;;;;5099643;28;19968;-68
2023/10/21 00:04:29;;;;;;;;;;;23.70;49.90;;;;;;5099817;28;20002;-68
2023/10/21 00:06:55;;;;;;;;;;;23.80;49.70;;;;;;5099679;28;20310;-68
2023/10/21 00:09:21;;;;;;;;;;;23.70;50.00;;;;;;5099580;28;19920;-68
2023/10/21 00:11:47;;;;;;;;;;;23.70;50.20;;;;;;5096513;28;19912;-68
2023/10/21 00:14:12;;;;;;;;;;;23.70;50.40;;;;;;5078959;28;19913;-68
2023/10/21 00:16:38;;;;;;;;;;;23.80;50.30;;;;;;5083518;28;19981;-68
2023/10/21 00:19:04;;;;;;;;;;;23.80;50.40;;;;;;5099460;28;19912;-68
2023/10/21 00:21:30;;;;;;;;;;;23.80;50.40;;;;;;5099408;28;20373;-68
2023/10/21 00:23:55;;;;;;;;;;;23.70;51.00;;;;;;5099466;28;19916;-68
2023/10/21 00:26:22;;;;;;;;;;;23.70;50.90;;;;;;5099369;28;20280;-68
2023/10/21 00:28:51;;;;;;;;;;;23.60;51.20;;;;;;5099015;28;19912;-68
2023/10/21 00:31:17;;;;;;;;;;;23.70;50.50;;;;;;5097999;28;19919;-68
2023/10/21 00:33:42;;;;;;;;;;;23.70;50.60;;;;;;5097929;28;19958;-68
2023/10/21 00:36:08;;;;;;;;;;;23.70;50.60;;;;;;5099218;28;19919;-68
2023/10/21 00:38:34;;;;;;;;;;;23.80;50.40;;;;;;5097841;28;20291;-68
2023/10/21 00:40:59;;;;;;;;;;;23.80;50.60;;;;;;5099129;28;19939;-68
2023/10/21 00:43:35;;;;;;;;;;;23.80;50.80;;;;;;5098051;28;19947;-68
2023/10/21 00:46:13;;;;;;;;;;;23.90;51.00;;;;;;5099003;28;19912;-68
2023/10/21 00:48:39;;;;;;;;;;;23.80;51.50;;;;;;5098868;28;19920;-67
2023/10/21 00:51:05;;;;;;;;;;;23.80;51.60;;;;;;5097573;28;19912;-69
2023/10/21 00:53:31;;;;;;;;;;;23.80;52.00;;;;;;5097665;28;19988;-69
2023/10/21 00:55:58;;;;;;;;;;;23.80;52.40;;;;;;5098696;28;19912;-69
2023/10/21 00:58:26;;;;;;;;;;;23.80;52.60;;;;;;5097554;28;19913;-68
2023/10/21 01:00:52;;;;;;;;;;;23.80;52.90;;;;;;5097323;28;19920;-68
2023/10/21 01:03:18;;;;;;;;;;;23.70;52.90;;;;;;5097400;28;20366;-69
2023/10/21 01:05:43;;;;;;;;;;;23.80;53.30;;;;;;5098622;28;20266;-68
2023/10/21 01:08:09;;;;;;;;;;;23.70;53.50;;;;;;5097246;28;19959;-69
2023/10/21 01:10:35;;;;;;;;;;;23.70;53.60;;;;;;5084395;28;19920;-69
2023/10/21 01:13:01;;;;;;;;;;;23.70;54.70;;;;;;5076732;28;19912;-69
2023/10/21 01:15:27;;;;;;;;;;;23.60;54.60;;;;;;5076856;28;19943;-68
2023/10/21 01:17:53;;;;;;;;;;;23.60;54.50;;;;;;5092755;28;19919;-68
2023/10/21 01:20:19;;;;;;;;;;;23.60;54.70;;;;;;5086973;28;19920;-69
2023/10/21 01:22:45;;;;;;;;;;;23.50;54.90;;;;;;5076660;28;19958;-69
2023/10/21 01:25:11;;;;;;;;;;;23.50;54.90;;;;;;5078081;28;20011;-68
2023/10/21 01:27:37;;;;;;;;;;;23.50;54.80;;;;;;5075583;28;19927;-68
2023/10/21 01:30:05;;;;;;;;;;;23.50;55.10;;;;;;5077914;28;19916;-68
2023/10/21 01:32:32;;;;;;;;;;;23.40;55.70;;;;;;5077729;28;19912;-68
2023/10/21 01:34:57;;;;;;;;;;;23.40;55.50;;;;;;5076643;28;19919;-68
2023/10/21 01:37:23;;;;;;;;;;;23.40;55.40;;;;;;5077826;28;20277;-68
2023/10/21 01:39:49;;;;;;;;;;;23.30;55.60;;;;;;5076447;28;19923;-68
2023/10/21 01:42:15;;;;;;;;;;;23.20;55.70;;;;;;5077770;28;19919;-68
2023/10/21 01:44:41;;;;;;;;;;;23.30;55.40;;;;;;5076374;28;20006;-68
2023/10/21 01:47:06;;;;;;;;;;;23.20;55.60;;;;;;5077602;28;19951;-68
2023/10/21 01:49:32;;;;;;;;;;;23.20;55.90;;;;;;5077510;28;19963;-68
2023/10/21 01:51:58;;;;;;;;;;;23.10;56.80;;;;;;5077753;28;19913;-68
2023/10/21 01:54:25;;;;;;;;;;;23.00;55.70;;;;;;5077565;28;19913;-68
2023/10/21 01:56:52;;;;;;;;;;;23.10;56.10;;;;;;5076074;28;19920;-68
2023/10/21 01:59:18;;;;;;;;;;;23.10;56.00;;;;;;5076108;28;19912;-68
2023/10/21 02:01:43;;;;;;;;;;;23.10;56.30;;;;;;5075880;28;19966;-68
2023/10/21 02:04:09;;;;;;;;;;;23.20;56.00;;;;;;5076008;28;19916;-67
2023/10/21 02:06:36;;;;;;;;;;;23.20;55.80;;;;;;5075929;28;19915;-68
2023/10/21 02:09:02;;;;;;;;;;;23.30;56.20;;;;;;5077388;28;19916;-68
2023/10/21 02:11:28;;;;;;;;;;;23.20;56.30;;;;;;5075812;28;20390;-68
2023/10/21 02:13:53;;;;;;;;;;;23.10;56.50;;;;;;5075924;28;20354;-68
2023/10/21 02:16:20;;;;;;;;;;;23.10;57.00;;;;;;5077371;28;19913;-68
2023/10/21 02:18:46;;;;;;;;;;;23.10;56.80;;;;;;5096190;28;20011;-68
2023/10/21 02:21:12;;;;;;;;;;;23.00;57.10;;;;;;5095920;28;19912;-68
2023/10/21 02:23:37;;;;;;;;;;;22.90;58.40;;;;;;5095583;28;19912;-68
2023/10/21 02:26:04;;;;;;;;;;;22.80;58.00;;;;;;5095819;28;19934;-68
2023/10/21 02:28:30;;;;;;;;;;;22.90;57.20;;;;;;5096763;28;19933;-68
2023/10/21 02:30:57;;;;;;;;;;;22.80;57.40;;;;;;5095575;28;20415;-68
2023/10/21 02:33:23;;;;;;;;;;;22.80;57.90;;;;;;5095688;28;19919;-68
2023/10/21 02:35:52;;;;;;;;;;;22.80;58.30;;;;;;5095650;28;19916;-68
2023/10/21 02:38:18;;;;;;;;;;;22.80;57.90;;;;;;5095752;28;19966;-68
2023/10/21 02:40:44;;;;;;;;;;;22.80;57.60;;;;;;5095507;28;19912;-68
2023/10/21 02:43:11;;;;;;;;;;;22.90;57.10;;;;;;5095446;28;19915;-67
2023/10/21 02:45:37;;;;;;;;;;;22.90;57.70;;;;;;5096747;28;19919;-68
2023/10/21 02:48:03;;;;;;;;;;;22.90;57.20;;;;;;5095409;28;20365;-68
2023/10/21 02:50:28;;;;;;;;;;;23.00;56.80;;;;;;5095325;28;19916;-68
2023/10/21 02:52:54;;;;;;;;;;;23.10;56.70;;;;;;5097040;28;19912;-68
2023/10/21 02:55:20;;;;;;;;;;;23.10;57.20;;;;;;5096662;28;19912;-67
2023/10/21 02:57:45;;;;;;;;;;;23.00;57.50;;;;;;5095138;28;19912;-68
2023/10/21 03:00:18;;;;;;;;;;;23.00;57.60;;;;;;5095123;28;19919;-67
2023/10/21 03:02:44;;;;;;;;;;;23.10;57.30;;;;;;5096483;28;19920;-67
2023/10/21 03:05:11;;;;;;;;;;;23.10;57.40;;;;;;5096461;28;19991;-68
2023/10/21 03:07:37;;;;;;;;;;;23.10;58.00;;;;;;5095095;28;19961;-68
2023/10/21 03:10:03;;;;;;;;;;;23.00;58.60;;;;;;5090250;28;19920;-68
2023/10/21 03:12:29;;;;;;;;;;;22.90;59.00;;;;;;5076056;28;20761;-68
2023/10/21 03:14:55;;;;;;;;;;;22.80;59.20;;;;;;5075895;28;19970;-67
2023/10/21 03:17:21;;;;;;;;;;;22.80;59.50;;;;;;5084895;28;19912;-67
2023/10/21 03:19:48;;;;;;;;;;;22.80;59.70;;;;;;5090201;28;19913;-67
2023/10/21 03:22:14;;;;;;;;;;;22.70;59.90;;;;;;5074700;28;19913;-67
2023/10/21 03:24:39;;;;;;;;;;;22.70;60.10;;;;;;5074738;28;19978;-67
2023/10/21 03:27:06;;;;;;;;;;;22.60;60.70;;;;;;5074548;28;20393;-67
2023/10/21 03:29:31;;;;;;;;;;;22.60;61.20;;;;;;5075640;28;20358;-67
2023/10/21 03:31:57;;;;;;;;;;;22.50;61.80;;;;;;5074605;28;19916;-68
2023/10/21 03:34:23;;;;;;;;;;;22.50;62.40;;;;;;5075631;28;20338;-68
2023/10/21 03:36:49;;;;;;;;;;;22.40;63.00;;;;;;5074326;28;19916;-67
2023/10/21 03:39:15;;;;;;;;;;;22.30;63.40;;;;;;5075716;28;20011;-67
2023/10/21 03:41:41;;;;;;;;;;;22.20;63.80;;;;;;5074453;28;20389;-67
2023/10/21 03:44:06;;;;;;;;;;;22.20;64.40;;;;;;5075740;28;19920;-67
2023/10/21 03:46:32;;;;;;;;;;;22.20;64.50;;;;;;5075825;28;19982;-68
2023/10/21 03:48:58;;;;;;;;;;;22.10;64.80;;;;;;5074295;28;19913;-67
2023/10/21 03:51:24;;;;;;;;;;;22.00;65.30;;;;;;5074432;28;19913;-67
2023/10/21 03:53:49;;;;;;;;;;;22.00;65.20;;;;;;5075666;28;19927;-67
2023/10/21 03:56:15;;;;;;;;;;;22.00;65.60;;;;;;5075550;28;19923;-68
2023/10/21 03:58:41;;;;;;;;;;;22.00;65.90;;;;;;5075723;28;19918;-67
2023/10/21 04:01:07;;;;;;;;;;;22.00;66.00;;;;;;5075663;28;19917;-67
2023/10/21 04:03:33;;;;;;;;;;;21.90;66.30;;;;;;5075561;28;19913;-67
2023/10/21 04:05:59;;;;;;;;;;;21.80;67.10;;;;;;5075630;28;19928;-68
2023/10/21 04:08:25;;;;;;;;;;;21.80;67.40;;;;;;5075442;28;20004;-67
2023/10/21 04:10:52;;;;;;;;;;;21.80;67.40;;;;;;5075404;28;20328;-68
2023/10/21 04:13:18;;;;;;;;;;;21.70;67.80;;;;;;5075265;28;20106;-68
2023/10/21 04:15:44;;;;;;;;;;;21.70;68.70;;;;;;5075439;28;19913;-68
2023/10/21 04:18:10;;;;;;;;;;;21.50;70.20;;;;;;5092433;28;19959;-68
2023/10/21 04:20:36;;;;;;;;;;;21.60;70.90;;;;;;5095637;28;19957;-67
2023/10/21 04:23:02;;;;;;;;;;;21.50;71.30;;;;;;5095664;28;19916;-67
2023/10/21 04:25:28;;;;;;;;;;;21.40;71.40;;;;;;5095568;28;20357;-68
2023/10/21 04:27:54;;;;;;;;;;;21.40;72.00;;;;;;5095460;28;19954;-68
2023/10/21 04:30:20;;;;;;;;;;;21.50;72.30;;;;;;5095573;28;20014;-68
2023/10/21 04:32:45;;;;;;;;;;;21.40;73.40;;;;;;5095607;28;20387;-68
2023/10/21 04:35:12;;;;;;;;;;;21.30;75.00;;;;;;5095551;28;19912;-68
2023/10/21 04:37:38;;;;;;;;;;;21.30;74.50;;;;;;5095366;28;19912;-68
2023/10/21 04:40:04;;;;;;;;;;;21.30;75.40;;;;;;5095431;28;19979;-68
2023/10/21 04:42:30;;;;;;;;;;;21.10;75.60;;;;;;5095435;28;19916;-67
2023/10/21 04:44:55;;;;;;;;;;;21.10;76.60;;;;;;5095385;28;20003;-67
2023/10/21 04:47:21;;;;;;;;;;;21.10;77.50;;;;;;5097974;28;20011;-68
2023/10/21 04:49:47;;;;;;;;;;;21.10;77.00;;;;;;5098893;28;19922;-68
2023/10/21 04:52:14;;;;;;;;;;;21.00;77.50;;;;;;5098868;28;19912;-68
2023/10/21 04:54:41;;;;;;;;;;;21.10;76.90;;;;;;5098726;28;20002;-68
2023/10/21 04:57:07;;;;;;;;;;;21.20;75.80;;;;;;5098780;28;19957;-68
2023/10/21 04:59:33;;;;;;;;;;;21.30;76.00;;;;;;5098758;28;20385;-68
2023/10/21 05:01:58;;;;;;;;;;;21.30;76.00;;;;;;5098614;28;20011;-67
2023/10/21 05:04:25;;;;;;;;;;;21.30;74.50;;;;;;5098608;28;19919;-68
2023/10/21 05:06:50;;;;;;;;;;;21.30;74.20;;;;;;5098614;28;19940;-68
2023/10/21 05:09:17;;;;;;;;;;;21.40;74.00;;;;;;5098466;28;19939;-68
2023/10/21 05:11:42;;;;;;;;;;;21.40;73.40;;;;;;5096064;28;20005;-68
2023/10/21 05:14:08;;;;;;;;;;;21.50;72.60;;;;;;5078122;28;20394;-67
2023/10/21 05:16:34;;;;;;;;;;;21.60;72.70;;;;;;5081875;28;20550;-68
2023/10/21 05:18:59;;;;;;;;;;;21.60;72.30;;;;;;5098376;28;19916;-68
2023/10/21 05:21:25;;;;;;;;;;;21.60;71.60;;;;;;5098389;28;20266;-67
2023/10/21 05:23:51;;;;;;;;;;;21.60;71.80;;;;;;5098240;28;19908;-68
2023/10/21 05:26:18;;;;;;;;;;;21.60;71.70;;;;;;5098297;28;19912;-68
2023/10/21 05:28:44;;;;;;;;;;;21.60;71.20;;;;;;5097907;28;19915;-68
2023/10/21 05:31:10;;;;;;;;;;;21.70;70.10;;;;;;5098305;28;19916;-67
2023/10/21 05:33:36;;;;;;;;;;;21.70;70.40;;;;;;5098182;28;20250;-68
2023/10/21 05:36:01;;;;;;;;;;;21.60;70.70;;;;;;5097990;28;19912;-68
2023/10/21 05:38:27;;;;;;;;;;;21.60;71.40;;;;;;5098180;28;19919;-68
2023/10/21 05:40:53;;;;;;;;;;;21.60;70.60;;;;;;5098032;28;19912;-68
2023/10/21 05:43:19;;;;;;;;;;;21.70;70.30;;;;;;5098038;28;19912;-68
2023/10/21 05:45:44;;;;;;;;;;;21.80;70.20;;;;;;5097887;28;19912;-68
2023/10/21 05:48:10;;;;;;;;;;;21.70;69.50;;;;;;5097954;28;20229;-68
2023/10/21 05:50:37;;;;;;;;;;;21.70;70.00;;;;;;5097630;28;20442;-67
2023/10/21 05:53:05;;;;;;;;;;;21.80;69.00;;;;;;5097848;28;19921;-68
2023/10/21 05:55:31;;;;;;;;;;;21.80;69.00;;;;;;5097691;28;20262;-67
2023/10/21 05:57:57;;;;;;;;;;;21.80;68.30;;;;;;5097102;28;19915;-68
2023/10/21 06:00:23;;;;;;;;;;;21.80;68.70;;;;;;5097659;28;19912;-68
2023/10/21 06:02:49;;;;;;;;;;;21.80;67.40;;;;;;5097416;28;19916;-68
2023/10/21 06:05:15;;;;;;;;;;;21.90;67.00;;;;;;5097384;28;19914;-68
2023/10/21 06:07:41;;;;;;;;;;;21.90;65.60;;;;;;5097457;28;19913;-68
2023/10/21 06:10:07;;;;;;;;;;;22.00;65.20;;;;;;5097524;28;19923;-67
2023/10/21 06:12:35;;;;;;;;;;;22.10;63.90;;;;;;5086874;28;20151;-68
2023/10/21 06:15:01;;;;;;;;;;;22.20;63.30;;;;;;5077035;28;19995;-68
2023/10/21 06:17:27;;;;;;;;;;;22.40;61.50;;;;;;5087968;28;19912;-67
2023/10/21 06:19:53;;;;;;;;;;;22.40;62.50;;;;;;5095802;28;19918;-68
2023/10/21 06:22:19;;;;;;;;;;;22.40;62.00;;;;;;5097133;28;19964;-68
2023/10/21 06:24:46;;;;;;;;;;;22.50;61.30;;;;;;5097170;28;20441;-68
2023/10/21 06:27:12;;;;;;;;;;;22.50;61.10;;;;;;5097278;28;19939;-68
2023/10/21 06:29:38;;;;;;;;;;;22.60;61.80;;;;;;5096907;28;20319;-68
2023/10/21 06:32:08;;;;;;;;;;;22.70;59.20;;;;;;5097560;28;19923;-68
2023/10/21 06:34:34;;;;;;;;;;;22.70;60.10;;;;;;5096883;28;19916;-69
2023/10/21 06:37:00;;;;;;;;;;;22.80;58.90;;;;;;5096849;28;19998;-69
2023/10/21 06:39:26;;;;;;;;;;;23.00;58.40;;;;;;5096896;28;20432;-68
2023/10/21 06:41:52;;;;;;;;;;;23.10;58.40;;;;;;5096871;28;19939;-68
2023/10/21 06:44:17;;;;;;;;;;;23.30;57.30;;;;;;5096767;28;19912;-68
2023/10/21 06:46:43;;;;;;;;;;;23.60;57.80;;;;;;5096746;28;19935;-68
2023/10/21 06:49:09;;;;;;;;;;;23.90;56.60;;;;;;5096622;28;20058;-69
2023/10/21 06:51:39;;;;;;;;;;;24.30;55.10;;;;;;5096635;28;19923;-68
2023/10/21 06:54:05;;;;;;;;;;;24.50;54.40;;;;;;5096762;28;20265;-69
2023/10/21 06:56:31;;;;;;;;;;;24.70;54.70;;;;;;5096447;28;19916;-68
2023/10/21 06:58:57;;;;;;;;;;;24.80;55.30;;;;;;5096501;28;19919;-69
2023/10/21 07:01:23;;;;;;;;;;;24.80;56.20;;;;;;5096387;28;19920;-68
2023/10/21 07:03:49;;;;;;;;;;;24.80;54.60;;;;;;5096530;28;20415;-68
2023/10/21 07:06:16;;;;;;;;;;;24.70;54.40;;;;;;5096523;28;20101;-68
2023/10/21 07:08:42;;;;;;;;;;;24.60;52.90;;;;;;5096320;28;19912;-69
2023/10/21 07:11:08;;;;;;;;;;;24.50;54.90;;;;;;5095438;28;20357;-69
2023/10/21 07:13:34;;;;;;;;;;;24.50;55.70;;;;;;5078367;28;19919;-69
2023/10/21 07:16:06;;;;;;;;;;;24.30;56.10;;;;;;5076066;28;19909;-69
2023/10/21 07:18:32;;;;;;;;;;;24.20;55.90;;;;;;5095926;28;19912;-68
2023/10/21 07:20:58;;;;;;;;;;;24.00;59.20;;;;;;5096245;28;19912;-68
2023/10/21 07:23:24;;;;;;;;;;;23.80;61.00;;;;;;5096490;28;19927;-68
2023/10/21 07:25:50;;;;;;;;;;;23.70;59.70;;;;;;5096548;28;19916;-68
2023/10/21 07:28:16;;;;;;;;;;;23.50;62.00;;;;;;5095839;28;19919;-67
2023/10/21 07:30:41;;;;;;;;;;;23.50;62.80;;;;;;5095964;28;20014;-68
2023/10/21 07:33:07;;;;;;;;;;;23.60;59.70;;;;;;5096050;28;20403;-68
2023/10/21 07:35:33;;;;;;;;;;;23.60;58.50;;;;;;5095992;28;19912;-68
2023/10/21 07:37:59;;;;;;;;;;;23.50;58.80;;;;;;5095937;28;19935;-68
2023/10/21 07:40:25;;;;;;;;;;;23.60;56.70;;;;;;5096003;28;19916;-68
2023/10/21 07:42:52;;;;;;;;;;;23.60;55.80;;;;;;5096024;28;19963;-68
2023/10/21 07:45:18;;;;;;;;;;;23.60;56.50;;;;;;5095886;28;19947;-68
2023/10/21 07:47:44;;;;;;;;;;;23.70;54.80;;;;;;5094496;28;20021;-69
2023/10/21 07:50:10;;;;;;;;;;;23.70;54.90;;;;;;5095850;28;19927;-68
2023/10/21 07:52:36;;;;;;;;;;;23.70;56.40;;;;;;5096002;28;20022;-68
2023/10/21 07:55:02;;;;;;;;;;;23.70;56.90;;;;;;5095933;28;19908;-68
2023/10/21 07:57:28;;;;;;;;;;;23.70;57.30;;;;;;5095889;28;19912;-69
2023/10/21 07:59:54;;;;;;;;;;;23.70;58.00;;;;;;5095597;28;19912;-68
2023/10/21 08:02:21;;;;;;;;;;;23.60;60.20;;;;;;5095622;28;19991;-68
2023/10/21 08:04:47;;;;;;;;;;;23.60;60.50;;;;;;5095752;28;19912;-68
2023/10/21 08:07:13;;;;;;;;;;;23.90;61.10;;;;;;5095690;28;19919;-69
2023/10/21 08:09:38;;;;;;;;;;;24.50;57.30;;;;;;5095526;28;19991;-68
2023/10/21 08:12:05;;;;;;;;;;;25.30;59.40;;;;;;5089985;28;19916;-68
2023/10/21 08:14:31;;;;;;;;;;;26.10;52.40;;;;;;5075417;28;20229;-69
2023/10/21 08:16:58;;;;;;;;;;;26.80;48.60;;;;;;5082065;28;20006;-69
2023/10/21 08:19:24;;;;;;;;;;;26.70;49.40;;;;;;5095579;28;19958;-69
2023/10/21 08:21:50;;;;;;;;;;;26.90;49.50;;;;;;5097628;28;20002;-69
2023/10/21 08:24:16;;;;;;;;;;;26.20;50.60;;;;;;5099772;28;19977;-69
2023/10/21 08:26:41;;;;;;;;;;;26.20;51.10;;;;;;5099418;28;19934;-69
2023/10/21 08:29:10;;;;;;;;;;;25.80;51.10;;;;;;5099076;28;19912;-68
2023/10/21 08:31:35;;;;;;;;;;;25.20;52.30;;;;;;5099208;28;20293;-69
2023/10/21 08:34:01;;;;;;;;;;;25.20;54.00;;;;;;5099327;28;19916;-69
2023/10/21 08:36:27;;;;;;;;;;;25.20;54.80;;;;;;5098096;28;20273;-68
2023/10/21 08:38:53;;;;;;;;;;;25.10;53.70;;;;;;5099195;28;20396;-69
2023/10/21 08:41:19;;;;;;;;;;;25.00;53.70;;;;;;5099058;28;20319;-68
2023/10/21 08:43:46;;;;;;;;;;;24.70;54.40;;;;;;5099066;28;19916;-69
2023/10/21 08:46:14;;;;;;;;;;;24.60;55.20;;;;;;5099059;28;19912;-68
2023/10/21 08:48:41;;;;;;;;;;;24.50;55.20;;;;;;5099481;28;20099;-69
2023/10/21 08:51:08;;;;;;;;;;;24.50;55.60;;;;;;5098607;28;20010;-68
2023/10/21 08:53:36;;;;;;;;;;;24.40;56.00;;;;;;5098951;28;20374;-68
2023/10/21 08:56:01;;;;;;;;;;;24.40;56.10;;;;;;5098720;28;19912;-68
2023/10/21 08:58:31;;;;;;;;;;;24.30;56.10;;;;;;5114571;28;19912;-69
2023/10/21 09:00:57;;;;;;;;;;;24.60;56.40;;;;;;5098665;28;19912;-69
2023/10/21 09:03:23;;;;;;;;;;;24.90;55.30;;;;;;5098792;28;19917;-69
2023/10/21 09:06:11;;;;;;;;;;;25.10;55.60;;;;;;5098674;28;19912;-69
2023/10/21 09:08:38;;;;;;;;;;;24.80;55.80;;;;;;5098609;28;19926;-68
2023/10/21 09:11:07;;;;;;;;;;;24.70;55.70;;;;;;5098490;28;19916;-69
2023/10/21 09:13:34;;;;;;;;;;;24.50;57.30;;;;;;5080585;28;19920;-69
2023/10/21 09:16:00;;;;;;;;;;;24.30;57.30;;;;;;5078558;28;19956;-68
2023/10/21 09:18:26;;;;;;;;;;;24.30;58.20;;;;;;5097226;28;20354;-68
2023/10/21 09:20:52;;;;;;;;;;;24.30;58.10;;;;;;5098358;28;19919;-69
2023/10/21 09:23:18;;;;;;;;;;;24.00;59.80;;;;;;5098510;28;19994;-69
2023/10/21 09:25:48;;;;;;;;;;;24.00;59.80;;;;;;5098266;28;19923;-69
2023/10/21 09:28:19;;;;;;;;;;;23.80;60.70;;;;;;5098142;28;19947;-68
2023/10/21 09:30:53;;;;;;;;;;;23.80;61.80;;;;;;5098238;28;19970;-69
2023/10/21 09:33:19;;;;;;;;;;;23.80;62.10;;;;;;5097193;28;19918;-68
2023/10/21 09:35:45;;;;;;;;;;;24.10;63.90;;;;;;5097957;28;20272;-68
2023/10/21 09:38:18;;;;;;;;;;;24.10;62.90;;;;;;5097793;28;19935;-68
2023/10/21 09:40:43;;;;;;;;;;;24.10;62.70;;;;;;5098060;28;19935;-68
2023/10/21 09:43:12;;;;;;;;;;;24.30;63.00;;;;;;5097901;28;19908;-68
2023/10/21 09:45:42;;;;;;;;;;;24.30;62.70;;;;;;5097922;28;19912;-68
2023/10/21 09:48:10;;;;;;;;;;;24.40;63.60;;;;;;5097673;28;20487;-68
2023/10/21 09:50:37;;;;;;;;;;;24.30;63.10;;;;;;5097712;28;19920;-68
2023/10/21 09:53:26;;;;;;;;;;;24.00;63.10;;;;;;5097765;28;20088;-69
2023/10/21 09:55:53;;;;;;;;;;;24.10;65.10;;;;;;5089431;28;19918;-69
2023/10/21 09:58:19;;;;;;;;;;;24.50;66.50;;;;;;5097668;28;20300;-69
2023/10/21 10:00:46;;;;;;;;;;;25.10;62.60;;;;;;5097481;28;19915;-67
2023/10/21 10:03:14;;;;;;;;;;;25.60;62.60;;;;;;5097762;28;19923;-69
2023/10/21 10:05:41;;;;;;;;;;;26.30;60.20;;;;;;5097511;28;19957;-69
2023/10/21 10:08:08;;;;;;;;;;;27.30;59.40;;;;;;5097506;28;20003;-69
2023/10/21 10:10:38;;;;;;;;;;;27.50;56.80;;;;;;5097409;28;20011;-69
2023/10/21 10:13:06;;;;;;;;;;;27.70;55.70;;;;;;5083496;28;20007;-69
2023/10/21 10:15:33;;;;;;;;;;;28.30;55.10;;;;;;5077041;28;19916;-69
2023/10/21 10:18:03;;;;;;;;;;;27.80;54.50;;;;;;5092420;28;19912;-70
2023/10/21 10:20:29;;;;;;;;;;;27.50;54.10;;;;;;5097235;28;20277;-69
2023/10/21 10:22:59;;;;;;;;;;;27.10;55.50;;;;;;5097233;28;19999;-69
2023/10/21 10:25:25;;;;;;;;;;;26.20;57.50;;;;;;5097083;28;19916;-68
2023/10/21 10:27:55;;;;;;;;;;;25.60;59.40;;;;;;5096921;28;19943;-69
2023/10/21 10:30:21;;;;;;;;;;;25.30;61.80;;;;;;5097068;28;19993;-69
2023/10/21 10:32:53;;;;;;;;;;;25.50;61.50;;;;;;5096967;28;19912;-69
2023/10/21 10:35:32;;;;;;;;;;;25.20;62.40;;;;;;5096930;28;19916;-69
2023/10/21 10:38:01;;;;;;;;;;;24.60;64.00;;;;;;5096898;28;19912;-69
2023/10/21 10:40:33;;;;;;;;;;;24.50;64.80;;;;;;5096832;28;20214;-69
2023/10/21 10:42:59;;;;;;;;;;;24.50;64.50;;;;;;5097101;28;19912;-68
2023/10/21 10:45:25;;;;;;;;;;;24.30;66.10;;;;;;5096621;28;19912;-68
2023/10/21 10:48:01;;;;;;;;;;;24.00;67.20;;;;;;5096642;28;20345;-67
2023/10/21 10:50:27;;;;;;;;;;;23.60;71.10;;;;;;5096724;28;19947;-67
2023/10/21 10:52:56;;;;;;;;;;;23.20;73.50;;;;;;5096610;28;19916;-68
2023/10/21 10:55:22;;;;;;;;;;;23.00;78.70;;;;;;5096809;28;19912;-68
2023/10/21 10:57:49;;;;;;;;;;;23.10;83.30;;;;;;5096823;28;20004;-68
2023/10/21 11:00:25;;;;;;;;;;;23.20;90.20;;;;;;5096559;28;20395;-68
2023/10/21 11:02:51;;;;;;;;;;;23.30;92.60;;;;;;5096397;28;19927;-68
2023/10/21 11:05:20;;;;;;;;;;;23.20;91.20;;;;;;5096383;28;20281;-67
2023/10/21 11:07:55;;;;;;;;;;;23.20;88.50;;;;;;5096290;28;19999;-68
2023/10/21 11:10:21;;;;;;;;;;;23.30;91.00;;;;;;5096294;28;19920;-68
2023/10/21 11:12:48;;;;;;;;;;;23.20;89.50;;;;;;5084622;28;19912;-68
2023/10/21 11:15:14;;;;;;;;;;;23.20;87.30;;;;;;5076076;28;20362;-67
2023/10/21 11:17:40;;;;;;;;;;;23.20;85.50;;;;;;5088581;28;20011;-68
2023/10/21 11:20:09;;;;;;;;;;;23.10;81.60;;;;;;5096040;28;20305;-68
2023/10/21 11:22:34;;;;;;;;;;;23.20;77.30;;;;;;5096260;28;19919;-68
2023/10/21 11:25:02;;;;;;;;;;;23.20;80.70;;;;;;5096351;28;19916;-68
2023/10/21 11:27:28;;;;;;;;;;;23.30;80.50;;;;;;5095953;28;19912;-68
2023/10/21 11:29:54;;;;;;;;;;;23.30;78.30;;;;;;5095856;28;20354;-68
2023/10/21 11:32:24;;;;;;;;;;;23.40;76.60;;;;;;5095984;28;19912;-67
2023/10/21 11:34:50;;;;;;;;;;;23.40;74.90;;;;;;5095942;28;19926;-68
2023/10/21 11:37:17;;;;;;;;;;;23.60;77.10;;;;;;5095956;28;19908;-68
2023/10/21 11:39:43;;;;;;;;;;;23.80;74.60;;;;;;5096050;28;19912;-68
2023/10/21 11:42:18;;;;;;;;;;;23.80;73.90;;;;;;5095969;28;19966;-68
2023/10/21 11:44:55;;;;;;;;;;;23.90;74.00;;;;;;5094442;28;19913;-68
2023/10/21 11:47:22;;;;;;;;;;;23.80;73.50;;;;;;5095894;28;19916;-68
2023/10/21 11:49:48;;;;;;;;;;;23.90;74.40;;;;;;5095810;28;19913;-68
2023/10/21 11:52:14;;;;;;;;;;;23.90;72.00;;;;;;5095863;28;19912;-68
2023/10/21 11:54:40;;;;;;;;;;;24.00;75.30;;;;;;5096145;28;19916;-68
2023/10/21 12:06:32;;;;;;;;;;;24.10;70.60;;;;;;5099859;28;19918;-68
2023/10/21 12:13:25;;;;;;;;;;;24.10;70.30;;;;;;5085698;28;19913;-68
2023/10/21 12:21:19;;;;;;;;;;;24.10;68.20;;;;;;5059222;28;20353;-68
2023/10/21 12:24:08;;;;;;;;;;;24.00;72.10;;;;;;5059232;28;19912;-68
2023/10/21 12:35:39;;;;;;;;;;;24.30;74.40;;;;;;5059078;28;19913;-69
2023/10/21 12:45:54;;;;;;;;;;;24.00;75.90;;;;;;5058669;28;19912;-69
2023/10/21 12:48:20;;;;;;;;;;;23.70;77.70;;;;;;5058750;28;19920;-68
2023/10/21 12:50:50;;;;;;;;;;;24.00;77.10;;;;;;5058621;28;20004;-68
2023/10/21 12:53:19;;;;;;;;;;;23.90;78.40;;;;;;5058743;28;20015;-69
2023/10/21 12:55:45;;;;;;;;;;;24.00;77.90;;;;;;5058549;28;19909;-68
2023/10/21 12:58:10;;;;;;;;;;;24.00;77.80;;;;;;5058478;28;19990;-68
2023/10/21 13:00:36;;;;;;;;;;;24.00;80.40;;;;;;5058503;28;19936;-69
2023/10/21 13:03:10;;;;;;;;;;;24.00;80.10;;;;;;5058392;28;19924;-68
2023/10/21 13:05:36;;;;;;;;;;;23.60;81.40;;;;;;5058450;28;19913;-68
2023/10/21 13:08:07;;;;;;;;;;;23.50;83.30;;;;;;5090581;28;19916;-68
2023/10/21 13:10:33;;;;;;;;;;;23.40;83.00;;;;;;5058311;28;19917;-68
2023/10/21 13:13:01;;;;;;;;;;;23.40;82.80;;;;;;5071030;28;19912;-68
2023/10/21 13:15:26;;;;;;;;;;;23.30;83.20;;;;;;5078534;28;19927;-68
2023/10/21 13:17:52;;;;;;;;;;;23.30;83.90;;;;;;5092642;28;20373;-68
2023/10/21 13:20:18;;;;;;;;;;;23.30;84.00;;;;;;5098350;28;19919;-68
2023/10/21 13:22:44;;;;;;;;;;;23.20;85.70;;;;;;5098353;28;19935;-68
2023/10/21 13:25:11;;;;;;;;;;;23.10;88.10;;;;;;5098347;28;19912;-68
2023/10/21 13:27:36;;;;;;;;;;;22.90;89.10;;;;;;5098521;28;19912;-68
2023/10/21 13:30:10;;;;;;;;;;;22.80;90.30;;;;;;5098145;28;19924;-68
2023/10/21 13:32:46;;;;;;;;;;;22.70;91.00;;;;;;5098237;28;19912;-69
2023/10/21 13:35:12;;;;;;;;;;;22.70;91.10;;;;;;5098108;28;19998;-69
2023/10/21 13:37:39;;;;;;;;;;;22.30;93.20;;;;;;5097972;28;19916;-68
2023/10/21 13:40:15;;;;;;;;;;;22.20;94.50;;;;;;5098047;28;19919;-68
2023/10/21 13:42:45;;;;;;;;;;;22.10;95.70;;;;;;5097999;28;19916;-68
2023/10/21 13:45:21;;;;;;;;;;;21.90;97.50;;;;;;5097953;28;19916;-68
2023/10/21 13:47:53;;;;;;;;;;;21.80;98.40;;;;;;5097856;28;19912;-68
2023/10/21 13:50:21;;;;;;;;;;;21.70;99.40;;;;;;5097786;28;19994;-68
2023/10/21 13:52:47;;;;;;;;;;;21.60;99.80;;;;;;5097717;28;19908;-68
2023/10/21 13:55:14;;;;;;;;;;;21.40;99.90;;;;;;5097714;28;19918;-68
2023/10/21 13:57:45;;;;;;;;;;;21.30;99.90;;;;;;5097543;28;19912;-68
2023/10/21 14:02:55;;;;;;;;;;;21.10;99.90;;;;;;5097401;28;19916;-68
2023/10/21 14:05:21;;;;;;;;;;;21.00;99.90;;;;;;5097550;28;19916;-68
2023/10/21 14:07:47;;;;;;;;;;;20.90;99.90;;;;;;5097460;28;19919;-68
2023/10/21 14:10:13;;;;;;;;;;;20.80;99.90;;;;;;5097373;28;20408;-68
2023/10/21 14:12:39;;;;;;;;;;;20.70;99.90;;;;;;5086786;28;19912;-68
2023/10/21 14:15:10;;;;;;;;;;;20.70;99.90;;;;;;5077017;28;19919;-68
2023/10/21 14:17:36;;;;;;;;;;;20.60;99.90;;;;;;5089175;28;19912;-68
2023/10/21 14:20:04;;;;;;;;;;;20.50;99.90;;;;;;5096672;28;20369;-68
2023/10/21 14:22:30;;;;;;;;;;;20.50;99.90;;;;;;5097094;28;19912;-68
2023/10/21 14:24:56;;;;;;;;;;;20.50;99.90;;;;;;5097266;28;19922;-68
2023/10/21 14:27:22;;;;;;;;;;;20.50;99.90;;;;;;5097058;28;19935;-68
2023/10/21 14:29:48;;;;;;;;;;;20.30;99.90;;;;;;5096938;28;19923;-68
2023/10/21 14:32:16;;;;;;;;;;;20.30;99.90;;;;;;5097041;28;19969;-68
2023/10/21 14:34:41;;;;;;;;;;;20.30;99.90;;;;;;5075560;28;19913;-68
2023/10/21 14:37:08;;;;;;;;;;;20.20;99.90;;;;;;5076569;28;19913;-68
2023/10/21 14:39:34;;;;;;;;;;;20.10;99.90;;;;;;5076638;28;20017;-68
2023/10/21 14:41:59;;;;;;;;;;;20.10;99.90;;;;;;5077064;28;20113;-69
2023/10/21 14:44:25;;;;;;;;;;;20.00;99.90;;;;;;5076257;28;20152;-69
2023/10/21 14:46:52;;;;;;;;;;;19.90;99.90;;;;;;5076532;28;19916;-68
2023/10/21 14:49:17;;;;;;;;;;;19.80;99.90;;;;;;5076341;28;19912;-69
2023/10/21 14:51:43;;;;;;;;;;;19.80;99.90;;;;;;5076317;28;19913;-69
2023/10/21 14:54:09;;;;;;;;;;;19.80;99.90;;;;;;5076254;28;19997;-69